createdAt,value
2023-05-29T00:00:39.855Z,14.38
2023-05-29T00:03:25.089Z,14.38
2023-05-29T00:05:54.086Z,14.39
2023-05-29T00:08:22.918Z,14.33
2023-05-29T00:10:51.503Z,14.30
2023-05-29T00:13:19.792Z,14.26
2023-05-29T00:15:48.785Z,14.28
2023-05-29T00:18:17.156Z,14.28
2023-05-29T00:20:45.987Z,14.24
2023-05-29T00:23:14.343Z,14.20
2023-05-29T00:25:42.821Z,14.13
2023-05-29T00:28:13.248Z,14.04
2023-05-29T00:30:41.485Z,13.97
2023-05-29T00:33:09.751Z,13.91
2023-05-29T00:35:38.017Z,13.86
2023-05-29T00:38:06.316Z,13.82
2023-05-29T00:40:34.867Z,13.77
2023-05-29T00:43:04.037Z,13.71
2023-05-29T00:45:41.804Z,13.68
2023-05-29T00:48:11.545Z,13.69
2023-05-29T00:50:40.185Z,13.68
2023-05-29T00:53:09.010Z,13.70
2023-05-29T00:55:37.668Z,13.73
2023-05-29T00:58:07.825Z,13.75
2023-05-29T01:00:40.109Z,13.77
2023-05-29T01:03:09.457Z,13.78
2023-05-29T01:05:38.477Z,13.78
2023-05-29T01:08:07.966Z,13.78
2023-05-29T01:10:38.824Z,13.77
2023-05-29T01:13:16.346Z,13.72
2023-05-29T01:15:59.842Z,13.65
2023-05-29T01:18:31.237Z,13.51
2023-05-29T01:21:21.284Z,13.33
2023-05-29T01:24:10.413Z,13.27
2023-05-29T01:27:15.576Z,13.29
2023-05-29T01:29:44.865Z,13.33
2023-05-29T01:32:13.650Z,13.39
2023-05-29T01:34:42.168Z,13.42
2023-05-29T01:37:10.525Z,13.41
2023-05-29T01:39:38.909Z,13.31
2023-05-29T01:42:07.676Z,13.15
2023-05-29T01:44:39.255Z,13.06
2023-05-29T01:47:08.761Z,13.07
2023-05-29T01:49:38.568Z,13.07
2023-05-29T01:52:07.420Z,13.03
2023-05-29T01:54:35.764Z,13.02
2023-05-29T01:57:07.312Z,13.05
2023-05-29T01:59:37.104Z,13.04
2023-05-29T02:02:13.072Z,13.05
2023-05-29T02:04:42.021Z,12.99
2023-05-29T02:07:13.496Z,12.89
2023-05-29T02:09:42.646Z,12.83
2023-05-29T02:12:10.693Z,12.80
2023-05-29T02:14:41.569Z,12.74
2023-05-29T02:17:10.564Z,12.65
2023-05-29T02:19:38.955Z,12.63
2023-05-29T02:22:07.813Z,12.66
2023-05-29T02:24:36.536Z,12.69
2023-05-29T02:27:05.316Z,12.76
2023-05-29T02:29:34.038Z,12.84
2023-05-29T02:32:03.098Z,12.88
2023-05-29T02:34:35.604Z,12.91
2023-05-29T02:37:04.196Z,12.93
2023-05-29T02:39:32.469Z,12.95
2023-05-29T02:42:01.061Z,12.97
2023-05-29T02:44:29.351Z,12.98
2023-05-29T02:46:57.730Z,12.93
2023-05-29T02:49:26.321Z,12.89
2023-05-29T02:51:58.281Z,12.84
2023-05-29T02:54:26.868Z,12.77
2023-05-29T02:56:55.374Z,12.78
2023-05-29T02:59:23.751Z,12.85
2023-05-29T03:01:53.292Z,12.91
2023-05-29T03:04:21.940Z,12.98
2023-05-29T03:06:50.492Z,13.04
2023-05-29T03:09:19.121Z,13.10
2023-05-29T03:11:48.901Z,13.13
2023-05-29T03:14:17.267Z,13.15
2023-05-29T03:16:46.900Z,13.17
2023-05-29T03:19:15.125Z,13.15
2023-05-29T03:21:43.923Z,13.06
2023-05-29T03:24:14.620Z,13.05
2023-05-29T03:26:43.415Z,13.06
2023-05-29T03:29:11.998Z,13.01
2023-05-29T03:31:40.335Z,13.04
2023-05-29T03:34:08.767Z,13.11
2023-05-29T03:36:40.896Z,13.20
2023-05-29T03:39:09.565Z,13.28
2023-05-29T03:41:38.154Z,13.30
2023-05-29T03:44:07.465Z,13.32
2023-05-29T03:46:36.996Z,13.35
2023-05-29T03:49:08.674Z,13.39
2023-05-29T03:51:37.729Z,13.41
2023-05-29T03:54:06.231Z,13.37
2023-05-29T03:56:36.541Z,13.30
2023-05-29T03:59:06.125Z,13.23
2023-05-29T04:01:35.871Z,13.23
2023-05-29T04:04:04.362Z,13.23
2023-05-29T04:06:33.469Z,13.22
2023-05-29T04:09:02.252Z,13.26
2023-05-29T04:11:31.267Z,13.31
2023-05-29T04:13:59.427Z,13.40
2023-05-29T04:16:32.077Z,13.40
2023-05-29T04:19:02.083Z,13.36
2023-05-29T04:21:34.002Z,13.34
2023-05-29T04:24:02.587Z,13.29
2023-05-29T04:26:34.004Z,13.22
2023-05-29T04:29:04.803Z,13.20
2023-05-29T04:31:34.356Z,13.20
2023-05-29T04:34:05.788Z,13.20
2023-05-29T04:36:34.760Z,13.22
2023-05-29T04:39:08.967Z,13.31
2023-05-29T04:41:39.489Z,13.37
2023-05-29T04:44:12.865Z,13.45
2023-05-29T04:46:48.585Z,13.53
2023-05-29T04:49:17.658Z,13.62
2023-05-29T04:51:48.219Z,13.70
2023-05-29T04:54:17.724Z,13.79
2023-05-29T04:56:47.789Z,13.86
2023-05-29T04:59:16.606Z,13.90
2023-05-29T05:01:45.341Z,13.93
2023-05-29T05:04:13.835Z,13.97
2023-05-29T05:06:42.371Z,14.04
2023-05-29T05:09:11.479Z,14.12
2023-05-29T05:11:44.372Z,14.18
2023-05-29T05:14:13.693Z,14.24
2023-05-29T05:16:42.617Z,14.31
2023-05-29T05:19:12.481Z,14.37
2023-05-29T05:21:42.023Z,14.44
2023-05-29T05:24:10.480Z,14.52
2023-05-29T05:26:41.554Z,14.60
2023-05-29T05:29:09.912Z,14.66
2023-05-29T05:31:39.478Z,14.74
2023-05-29T05:34:08.008Z,14.81
2023-05-29T05:36:38.038Z,14.88
2023-05-29T05:39:11.013Z,14.96
2023-05-29T05:41:39.716Z,15.04
2023-05-29T05:44:08.311Z,15.12
2023-05-29T05:46:46.310Z,15.20
2023-05-29T05:49:14.698Z,15.25
2023-05-29T05:51:45.968Z,15.29
2023-05-29T05:54:14.225Z,15.37
2023-05-29T05:56:48.652Z,15.43
2023-05-29T05:59:17.137Z,15.48
2023-05-29T06:01:45.648Z,15.55
2023-05-29T06:04:15.968Z,15.59
2023-05-29T06:06:47.908Z,15.65
2023-05-29T06:09:16.183Z,15.72
2023-05-29T06:11:46.427Z,15.81
2023-05-29T06:14:15.798Z,15.90
2023-05-29T06:16:44.770Z,15.97
2023-05-29T06:19:13.631Z,16.08
2023-05-29T06:21:59.712Z,16.18
2023-05-29T06:24:29.234Z,16.29
2023-05-29T06:26:58.159Z,16.40
2023-05-29T06:29:27.335Z,16.47
2023-05-29T06:31:55.745Z,16.53
2023-05-29T06:34:24.395Z,16.60
2023-05-29T06:36:52.657Z,16.69
2023-05-29T06:39:25.952Z,16.78
2023-05-29T06:41:57.336Z,16.85
2023-05-29T06:44:25.773Z,16.93
2023-05-29T06:46:56.793Z,17.01
2023-05-29T06:49:25.380Z,17.11
2023-05-29T06:51:54.344Z,17.21
2023-05-29T06:54:27.129Z,17.30
2023-05-29T06:57:09.850Z,17.41
2023-05-29T06:59:39.884Z,17.50
2023-05-29T07:02:08.589Z,17.57
2023-05-29T07:04:37.174Z,17.64
2023-05-29T07:07:06.861Z,17.74
2023-05-29T07:09:36.259Z,17.84
2023-05-29T07:12:05.362Z,17.94
2023-05-29T07:14:33.755Z,18.03
2023-05-29T07:17:03.295Z,18.10
2023-05-29T07:19:33.683Z,18.19
2023-05-29T07:22:03.101Z,18.30
2023-05-29T07:24:31.380Z,18.41
2023-05-29T07:26:59.665Z,18.55
2023-05-29T07:29:28.879Z,18.64
2023-05-29T07:31:57.200Z,18.72
2023-05-29T07:34:25.536Z,18.87
2023-05-29T07:37:03.786Z,18.98
2023-05-29T07:39:35.095Z,19.07
2023-05-29T07:42:07.848Z,19.14
2023-05-29T07:44:37.506Z,19.25
2023-05-29T07:47:06.916Z,19.37
2023-05-29T07:49:42.649Z,19.46
2023-05-29T07:52:12.677Z,19.56
2023-05-29T07:54:41.075Z,19.67
2023-05-29T07:57:11.047Z,19.77
2023-05-29T07:59:44.314Z,19.85
2023-05-29T08:02:13.377Z,19.94
2023-05-29T08:05:01.052Z,20.13
2023-05-29T08:07:30.190Z,20.30
2023-05-29T08:09:59.187Z,20.44
2023-05-29T08:12:27.814Z,20.57
2023-05-29T08:14:58.830Z,20.74
2023-05-29T08:17:27.440Z,20.95
2023-05-29T08:19:55.833Z,21.12
2023-05-29T08:22:29.702Z,21.28
2023-05-29T08:24:58.008Z,21.43
2023-05-29T08:27:26.798Z,21.54
2023-05-29T08:29:56.633Z,21.63
2023-05-29T08:32:25.017Z,21.78
2023-05-29T08:34:53.383Z,21.88
2023-05-29T08:37:22.014Z,21.98
2023-05-29T08:39:50.256Z,22.08
2023-05-29T08:42:35.058Z,22.22
2023-05-29T08:45:05.727Z,22.38
2023-05-29T08:47:35.202Z,22.53
2023-05-29T08:50:04.297Z,22.68
2023-05-29T08:52:39.309Z,22.87
2023-05-29T08:55:08.546Z,23.05
2023-05-29T08:57:39.151Z,23.22
2023-05-29T09:00:13.362Z,23.41
2023-05-29T09:02:41.973Z,23.59
2023-05-29T09:05:11.396Z,23.70
2023-05-29T09:07:43.896Z,23.81
2023-05-29T09:10:17.083Z,24.04
2023-05-29T09:12:47.963Z,24.28
2023-05-29T09:15:21.469Z,24.30
2023-05-29T09:17:56.996Z,24.28
2023-05-29T09:20:26.216Z,24.56
2023-05-29T09:22:57.161Z,24.89
2023-05-29T09:25:28.409Z,25.20
2023-05-29T09:28:02.042Z,25.45
2023-05-29T09:30:48.357Z,25.69
2023-05-29T09:33:17.949Z,26.00
2023-05-29T09:35:48.452Z,26.38
2023-05-29T09:40:54.024Z,27.08
2023-05-29T09:43:25.076Z,27.36
2023-05-29T09:45:53.447Z,27.63
2023-05-29T09:48:25.507Z,27.90
2023-05-29T09:50:55.125Z,28.10
2023-05-29T09:53:26.598Z,28.37
2023-05-29T09:55:57.353Z,28.72
2023-05-29T09:58:26.638Z,29.09
2023-05-29T10:00:55.164Z,29.35
2023-05-29T10:03:25.687Z,29.60
2023-05-29T10:05:59.783Z,30.06
2023-05-29T10:08:30.760Z,30.48
2023-05-29T10:11:05.533Z,30.59
2023-05-29T10:13:39.561Z,31.03
2023-05-29T10:16:12.281Z,31.50
2023-05-29T10:18:44.564Z,31.81
2023-05-29T10:21:15.263Z,31.97
2023-05-29T10:23:48.803Z,32.27
2023-05-29T10:26:22.644Z,32.69
2023-05-29T10:29:12.551Z,33.21
2023-05-29T10:32:05.585Z,33.45
2023-05-29T10:34:45.429Z,33.14
2023-05-29T10:37:39.004Z,33.35
2023-05-29T10:40:14.154Z,33.48
2023-05-29T10:42:51.289Z,33.42
2023-05-29T10:45:37.308Z,33.91
2023-05-29T10:48:08.665Z,34.39
2023-05-29T10:50:38.266Z,34.69
2023-05-29T10:53:23.955Z,34.89
2023-05-29T10:55:53.084Z,34.29
2023-05-29T10:58:27.098Z,33.75
2023-05-29T11:00:57.742Z,34.05
2023-05-29T11:03:31.939Z,34.52
2023-05-29T11:06:07.412Z,35.30
2023-05-29T11:08:37.188Z,35.94
2023-05-29T11:11:07.924Z,36.48
2023-05-29T11:13:37.801Z,37.08
2023-05-29T11:16:18.909Z,37.12
2023-05-29T11:18:53.140Z,36.59
2023-05-29T11:21:40.191Z,35.75
2023-05-29T11:24:08.737Z,35.11
2023-05-29T11:26:39.081Z,35.46
2023-05-29T11:29:11.953Z,36.02
2023-05-29T11:31:41.951Z,36.76
2023-05-29T11:34:15.187Z,37.38
2023-05-29T11:36:44.718Z,37.56
2023-05-29T11:39:13.583Z,37.85
2023-05-29T11:41:42.118Z,37.84
2023-05-29T11:44:14.723Z,36.78
2023-05-29T11:46:43.627Z,35.61
2023-05-29T11:49:12.283Z,34.73
2023-05-29T11:51:43.328Z,34.05
2023-05-29T11:54:13.298Z,34.07
2023-05-29T11:56:42.263Z,34.22
2023-05-29T11:59:12.651Z,34.01
2023-05-29T12:01:41.190Z,33.64
2023-05-29T12:04:17.058Z,33.06
2023-05-29T12:06:45.951Z,32.22
2023-05-29T12:09:28.179Z,31.63
2023-05-29T12:12:07.064Z,31.13
2023-05-29T12:14:35.443Z,31.77
2023-05-29T12:17:04.779Z,32.46
2023-05-29T12:19:33.220Z,33.70
2023-05-29T12:22:01.748Z,34.56
2023-05-29T12:24:41.808Z,34.63
2023-05-29T12:27:11.189Z,35.77
2023-05-29T12:29:41.108Z,36.95
2023-05-29T12:32:13.075Z,37.80
2023-05-29T12:34:43.072Z,38.48
2023-05-29T12:37:15.348Z,38.74
2023-05-29T12:39:43.663Z,38.96
2023-05-29T12:42:13.228Z,38.58
2023-05-29T12:44:43.386Z,38.36
2023-05-29T12:47:15.302Z,38.60
2023-05-29T12:49:43.947Z,38.32
2023-05-29T12:52:12.987Z,38.90
2023-05-29T12:54:41.348Z,39.52
2023-05-29T12:57:09.719Z,40.14
2023-05-29T12:59:38.094Z,41.04
2023-05-29T13:02:09.190Z,41.77
2023-05-29T13:04:37.623Z,42.29
2023-05-29T13:07:06.669Z,41.66
2023-05-29T13:09:35.132Z,40.50
2023-05-29T13:12:06.921Z,39.08
2023-05-29T13:14:35.392Z,37.54
2023-05-29T13:17:03.786Z,36.39
2023-05-29T13:19:32.028Z,35.24
2023-05-29T13:22:00.422Z,34.45
2023-05-29T13:24:28.797Z,34.53
2023-05-29T13:26:57.107Z,35.30
2023-05-29T13:29:25.281Z,36.35
2023-05-29T13:31:54.078Z,37.35
2023-05-29T13:34:24.930Z,38.31
2023-05-29T13:36:53.278Z,39.06
2023-05-29T13:39:21.488Z,39.75
2023-05-29T13:41:49.845Z,40.04
2023-05-29T13:44:18.532Z,39.87
2023-05-29T13:46:46.704Z,39.76
2023-05-29T13:49:14.994Z,39.99
2023-05-29T13:51:43.180Z,40.01
2023-05-29T13:54:14.419Z,40.30
2023-05-29T13:56:47.758Z,40.49
2023-05-29T13:59:18.833Z,40.68
2023-05-29T14:01:49.668Z,41.04
2023-05-29T14:04:18.071Z,41.64
2023-05-29T14:06:46.944Z,42.22
2023-05-29T14:09:15.548Z,42.36
2023-05-29T14:11:43.964Z,41.77
2023-05-29T14:14:12.343Z,41.68
2023-05-29T14:16:40.832Z,41.82
2023-05-29T14:19:09.731Z,42.09
2023-05-29T14:21:38.219Z,42.14
2023-05-29T14:24:06.859Z,42.00
2023-05-29T14:26:35.104Z,41.25
2023-05-29T14:29:13.407Z,41.03
2023-05-29T14:31:44.921Z,41.00
2023-05-29T14:34:14.023Z,41.02
2023-05-29T14:36:45.912Z,40.84
2023-05-29T14:39:14.337Z,40.76
2023-05-29T14:41:42.584Z,41.00
2023-05-29T14:44:12.917Z,41.32
2023-05-29T14:46:43.501Z,41.61
2023-05-29T14:49:12.242Z,41.89
2023-05-29T14:51:40.728Z,42.14
2023-05-29T14:54:10.527Z,42.48
2023-05-29T14:56:40.924Z,42.80
2023-05-29T14:59:09.466Z,42.81
2023-05-29T15:01:37.747Z,42.49
2023-05-29T15:04:07.102Z,42.37
2023-05-29T15:06:37.471Z,42.49
2023-05-29T15:09:05.976Z,42.60
2023-05-29T15:11:34.356Z,42.76
2023-05-29T15:14:02.741Z,42.89
2023-05-29T15:16:31.047Z,43.00
2023-05-29T15:18:59.389Z,42.98
2023-05-29T15:21:27.893Z,42.80
2023-05-29T15:23:56.175Z,42.55
2023-05-29T15:26:25.081Z,42.51
2023-05-29T15:28:55.623Z,42.35
2023-05-29T15:31:24.051Z,42.26
2023-05-29T15:33:54.363Z,42.19
2023-05-29T15:36:22.654Z,41.98
2023-05-29T15:38:51.633Z,41.81
2023-05-29T15:41:21.144Z,41.77
2023-05-29T15:43:49.496Z,41.48
2023-05-29T15:46:17.726Z,40.96
2023-05-29T15:48:45.980Z,40.54
2023-05-29T15:51:14.652Z,39.85
2023-05-29T15:53:42.928Z,39.26
2023-05-29T15:56:11.438Z,38.80
2023-05-29T15:58:39.698Z,38.67
2023-05-29T16:01:08.082Z,38.74
2023-05-29T16:03:36.512Z,38.89
2023-05-29T16:06:05.101Z,39.03
2023-05-29T16:08:33.448Z,39.10
2023-05-29T16:11:02.602Z,39.25
2023-05-29T16:13:36.362Z,39.23
2023-05-29T16:16:04.606Z,38.85
2023-05-29T16:18:33.093Z,38.19
2023-05-29T16:21:04.196Z,37.33
2023-05-29T16:23:33.369Z,36.44
2023-05-29T16:26:02.345Z,35.51
2023-05-29T16:28:30.662Z,34.76
2023-05-29T16:30:59.759Z,34.28
2023-05-29T16:33:28.089Z,33.87
2023-05-29T16:35:56.695Z,33.24
2023-05-29T16:38:25.149Z,32.74
2023-05-29T16:40:53.396Z,32.39
2023-05-29T16:43:22.577Z,32.35
2023-05-29T16:45:51.825Z,32.19
2023-05-29T16:48:20.500Z,31.94
2023-05-29T16:50:49.100Z,31.60
2023-05-29T16:53:17.417Z,31.21
2023-05-29T16:55:46.570Z,30.80
2023-05-29T16:58:15.263Z,30.47
2023-05-29T17:00:45.220Z,30.15
2023-05-29T17:03:14.740Z,29.91
2023-05-29T17:05:43.174Z,29.63
2023-05-29T17:08:12.101Z,29.33
2023-05-29T17:10:41.607Z,29.08
2023-05-29T17:13:09.964Z,28.91
2023-05-29T17:15:38.250Z,28.86
2023-05-29T17:18:07.176Z,28.73
2023-05-29T17:20:36.893Z,28.43
2023-05-29T17:23:05.785Z,28.11
2023-05-29T17:25:33.967Z,27.83
2023-05-29T17:28:02.352Z,27.60
2023-05-29T17:30:33.276Z,27.37
2023-05-29T17:33:04.212Z,27.13
2023-05-29T17:35:34.562Z,26.93
2023-05-29T17:38:03.323Z,26.73
2023-05-29T17:40:32.129Z,26.53
2023-05-29T17:43:00.518Z,26.33
2023-05-29T17:45:28.993Z,26.11
2023-05-29T17:47:58.345Z,25.85
2023-05-29T17:50:27.094Z,25.60
2023-05-29T17:52:56.290Z,25.31
2023-05-29T17:55:25.390Z,25.05
2023-05-29T17:57:53.883Z,24.77
2023-05-29T18:00:22.199Z,24.55
2023-05-29T18:02:50.709Z,24.36
2023-05-29T18:05:19.068Z,24.18
2023-05-29T18:07:48.531Z,24.02
2023-05-29T18:10:22.072Z,23.87
2023-05-29T18:12:54.422Z,23.71
2023-05-29T18:15:24.140Z,23.55
2023-05-29T18:17:52.940Z,23.39
2023-05-29T18:20:21.878Z,23.21
2023-05-29T18:22:49.991Z,23.08
2023-05-29T18:25:18.721Z,22.97
2023-05-29T18:27:47.955Z,22.86
2023-05-29T18:30:16.697Z,22.73
2023-05-29T18:32:45.101Z,22.60
2023-05-29T18:35:14.902Z,22.47
2023-05-29T18:37:43.178Z,22.35
2023-05-29T18:40:12.661Z,22.23
2023-05-29T18:42:41.728Z,22.13
2023-05-29T18:45:10.761Z,22.04
2023-05-29T18:47:39.606Z,21.89
2023-05-29T18:50:08.271Z,21.76
2023-05-29T18:52:36.548Z,21.61
2023-05-29T18:55:05.168Z,21.46
2023-05-29T18:57:33.522Z,21.27
2023-05-29T19:00:01.804Z,21.01
2023-05-29T19:02:30.215Z,20.75
2023-05-29T19:04:59.734Z,20.64
2023-05-29T19:07:28.409Z,20.64
2023-05-29T19:09:56.678Z,20.61
2023-05-29T19:12:25.064Z,20.56
2023-05-29T19:14:53.286Z,20.52
2023-05-29T19:17:21.938Z,20.45
2023-05-29T19:19:50.697Z,20.37
2023-05-29T19:22:19.051Z,20.29
2023-05-29T19:24:48.774Z,20.23
2023-05-29T19:27:17.116Z,20.11
2023-05-29T19:29:46.237Z,19.98
2023-05-29T19:32:19.099Z,19.88
2023-05-29T19:34:48.465Z,19.76
2023-05-29T19:37:17.204Z,19.63
2023-05-29T19:39:46.814Z,19.53
2023-05-29T19:42:15.923Z,19.47
2023-05-29T19:44:44.293Z,19.34
2023-05-29T19:47:12.770Z,19.19
2023-05-29T19:49:41.885Z,19.09
2023-05-29T19:52:10.667Z,19.03
2023-05-29T19:54:39.100Z,19.00
2023-05-29T19:57:08.762Z,18.96
2023-05-29T19:59:38.080Z,18.92
2023-05-29T20:02:07.080Z,18.88
2023-05-29T20:04:36.798Z,18.82
2023-05-29T20:07:07.060Z,18.73
2023-05-29T20:09:35.924Z,18.64
2023-05-29T20:12:04.608Z,18.57
2023-05-29T20:14:33.303Z,18.50
2023-05-29T20:17:01.747Z,18.42
2023-05-29T20:19:29.961Z,18.32
2023-05-29T20:21:58.248Z,18.22
2023-05-29T20:24:26.902Z,18.15
2023-05-29T20:26:57.859Z,18.09
2023-05-29T20:29:26.752Z,18.02
2023-05-29T20:31:58.216Z,17.93
2023-05-29T20:34:26.631Z,17.88
2023-05-29T20:36:55.213Z,17.83
2023-05-29T20:39:27.075Z,17.76
2023-05-29T20:41:59.774Z,17.70
2023-05-29T20:44:33.046Z,17.61
2023-05-29T20:47:03.997Z,17.57
2023-05-29T20:49:32.206Z,17.53
2023-05-29T20:52:00.675Z,17.46
2023-05-29T20:54:30.203Z,17.41
2023-05-29T20:56:59.034Z,17.36
2023-05-29T20:59:28.716Z,17.29
2023-05-29T21:01:58.336Z,17.25
2023-05-29T21:04:27.394Z,17.15
2023-05-29T21:06:56.091Z,16.99
2023-05-29T21:09:24.523Z,16.87
2023-05-29T21:11:53.040Z,16.80
2023-05-29T21:14:21.682Z,16.76
2023-05-29T21:16:50.039Z,16.74
2023-05-29T21:19:18.174Z,16.71
2023-05-29T21:21:46.922Z,16.68
2023-05-29T21:24:16.070Z,16.69
2023-05-29T21:26:44.292Z,16.69
2023-05-29T21:29:13.081Z,16.66
2023-05-29T21:31:42.203Z,16.61
2023-05-29T21:34:10.565Z,16.58
2023-05-29T21:36:39.310Z,16.55
2023-05-29T21:39:08.564Z,16.43
2023-05-29T21:41:37.553Z,16.33
2023-05-29T21:44:09.102Z,16.25
2023-05-29T21:46:39.133Z,16.21
2023-05-29T21:49:07.525Z,16.16
2023-05-29T21:51:35.767Z,16.13
2023-05-29T21:54:04.394Z,16.11
2023-05-29T21:56:32.548Z,16.05
2023-05-29T21:59:00.959Z,16.00
2023-05-29T22:01:29.317Z,15.94
2023-05-29T22:03:57.654Z,15.88
2023-05-29T22:06:25.697Z,15.81
2023-05-29T22:08:53.987Z,15.77
2023-05-29T22:11:23.695Z,15.73
2023-05-29T22:13:51.978Z,15.71
2023-05-29T22:16:20.313Z,15.71
2023-05-29T22:19:03.972Z,15.73
2023-05-29T22:21:33.588Z,15.72
2023-05-29T22:24:03.226Z,15.72
2023-05-29T22:26:33.108Z,15.73
2023-05-29T22:29:01.689Z,15.70
2023-05-29T22:31:30.648Z,15.71
2023-05-29T22:33:59.324Z,15.73
2023-05-29T22:36:29.252Z,15.74
2023-05-29T22:38:57.548Z,15.75
2023-05-29T22:41:26.126Z,15.69
2023-05-29T22:43:54.682Z,15.62
2023-05-29T22:46:24.692Z,15.59
2023-05-29T22:48:54.501Z,15.58
2023-05-29T22:51:26.511Z,15.59
2023-05-29T22:53:55.504Z,15.55
2023-05-29T22:56:23.792Z,15.50
2023-05-29T22:58:51.997Z,15.47
2023-05-29T23:01:20.356Z,15.45
2023-05-29T23:03:49.028Z,15.41
2023-05-29T23:06:18.152Z,15.40
2023-05-29T23:08:46.724Z,15.39
2023-05-29T23:11:16.059Z,15.37
2023-05-29T23:13:44.455Z,15.33
2023-05-29T23:16:13.743Z,15.29
2023-05-29T23:18:42.045Z,15.23
2023-05-29T23:21:10.320Z,15.19
2023-05-29T23:23:38.470Z,15.15
2023-05-29T23:26:06.668Z,15.08
2023-05-29T23:28:34.947Z,14.98
2023-05-29T23:31:03.939Z,14.95
2023-05-29T23:33:32.565Z,14.89
2023-05-29T23:36:01.170Z,14.85
2023-05-29T23:38:29.607Z,14.81
2023-05-29T23:40:58.134Z,14.77
2023-05-29T23:43:27.023Z,14.73
2023-05-29T23:45:55.676Z,14.75
2023-05-29T23:48:24.457Z,14.79
2023-05-29T23:50:53.021Z,14.82
2023-05-29T23:53:21.438Z,14.85
2023-05-29T23:55:50.821Z,14.89
2023-05-29T23:58:19.546Z,14.92
